sensor_id;sensor_type;location;lat;lon;timestamp;P1;durP1;ratioP1;P2;durP2;ratioP2
20711;SDS011;10517;50.742;4.224;2023-04-30T00:01:52;15.57;;;8.97;;
20711;SDS011;10517;50.742;4.224;2023-04-30T00:04:18;16.23;;;8.50;;
20711;SDS011;10517;50.742;4.224;2023-04-30T00:06:43;20.43;;;9.37;;
20711;SDS011;10517;50.742;4.224;2023-04-30T00:09:09;20.70;;;10.27;;
20711;SDS011;10517;50.742;4.224;2023-04-30T00:11:35;18.43;;;9.17;;
20711;SDS011;10517;50.742;4.224;2023-04-30T00:14:00;27.63;;;10.30;;
20711;SDS011;10517;50.742;4.224;2023-04-30T00:16:26;21.20;;;10.27;;
20711;SDS011;10517;50.742;4.224;2023-04-30T00:18:51;19.37;;;10.03;;
20711;SDS011;10517;50.742;4.224;2023-04-30T00:21:17;19.47;;;9.50;;
20711;SDS011;10517;50.742;4.224;2023-04-30T00:23:43;21.47;;;10.47;;
20711;SDS011;10517;50.742;4.224;2023-04-30T00:26:08;20.23;;;10.50;;
20711;SDS011;10517;50.742;4.224;2023-04-30T00:28:34;20.10;;;9.37;;
20711;SDS011;10517;50.742;4.224;2023-04-30T00:31:00;19.27;;;9.63;;
20711;SDS011;10517;50.742;4.224;2023-04-30T00:33:25;20.60;;;9.87;;
20711;SDS011;10517;50.742;4.224;2023-04-30T00:35:51;16.73;;;9.33;;
20711;SDS011;10517;50.742;4.224;2023-04-30T00:38:17;18.47;;;9.30;;
20711;SDS011;10517;50.742;4.224;2023-04-30T00:40:42;21.47;;;10.20;;
20711;SDS011;10517;50.742;4.224;2023-04-30T00:43:09;16.60;;;9.50;;
20711;SDS011;10517;50.742;4.224;2023-04-30T00:45:34;20.53;;;10.37;;
20711;SDS011;10517;50.742;4.224;2023-04-30T00:48:00;18.27;;;9.20;;
20711;SDS011;10517;50.742;4.224;2023-04-30T00:50:27;18.97;;;9.60;;
20711;SDS011;10517;50.742;4.224;2023-04-30T00:52:53;18.93;;;10.80;;
20711;SDS011;10517;50.742;4.224;2023-04-30T00:55:19;20.17;;;10.47;;
20711;SDS011;10517;50.742;4.224;2023-04-30T00:57:44;24.50;;;10.07;;
20711;SDS011;10517;50.742;4.224;2023-04-30T01:00:10;17.07;;;9.10;;
20711;SDS011;10517;50.742;4.224;2023-04-30T01:02:37;21.67;;;10.07;;
20711;SDS011;10517;50.742;4.224;2023-04-30T01:05:04;20.73;;;9.97;;
20711;SDS011;10517;50.742;4.224;2023-04-30T01:07:30;27.13;;;10.17;;
20711;SDS011;10517;50.742;4.224;2023-04-30T01:09:56;18.83;;;9.83;;
20711;SDS011;10517;50.742;4.224;2023-04-30T01:20:09;22.13;;;11.30;;
20711;SDS011;10517;50.742;4.224;2023-04-30T01:22:40;19.53;;;10.37;;
20711;SDS011;10517;50.742;4.224;2023-04-30T01:25:20;23.83;;;11.40;;
20711;SDS011;10517;50.742;4.224;2023-04-30T01:30:16;20.33;;;10.83;;
20711;SDS011;10517;50.742;4.224;2023-04-30T01:32:43;24.43;;;11.70;;
20711;SDS011;10517;50.742;4.224;2023-04-30T01:35:08;20.57;;;10.23;;
20711;SDS011;10517;50.742;4.224;2023-04-30T01:51:18;21.40;;;10.67;;
20711;SDS011;10517;50.742;4.224;2023-04-30T01:53:48;21.67;;;10.77;;
20711;SDS011;10517;50.742;4.224;2023-04-30T01:56:20;19.10;;;11.03;;
20711;SDS011;10517;50.742;4.224;2023-04-30T01:59:01;18.97;;;9.83;;
20711;SDS011;10517;50.742;4.224;2023-04-30T02:01:29;21.50;;;11.43;;
20711;SDS011;10517;50.742;4.224;2023-04-30T02:03:56;21.23;;;10.63;;
20711;SDS011;10517;50.742;4.224;2023-04-30T02:06:22;19.60;;;10.87;;
20711;SDS011;10517;50.742;4.224;2023-04-30T02:08:55;20.93;;;10.20;;
20711;SDS011;10517;50.742;4.224;2023-04-30T02:11:27;21.03;;;11.03;;
20711;SDS011;10517;50.742;4.224;2023-04-30T02:13:55;21.10;;;10.33;;
20711;SDS011;10517;50.742;4.224;2023-04-30T02:16:21;21.67;;;10.67;;
20711;SDS011;10517;50.742;4.224;2023-04-30T02:18:47;17.53;;;9.93;;
20711;SDS011;10517;50.742;4.224;2023-04-30T02:21:13;19.33;;;9.97;;
20711;SDS011;10517;50.742;4.224;2023-04-30T02:23:39;21.83;;;9.07;;
20711;SDS011;10517;50.742;4.224;2023-04-30T02:26:05;19.00;;;9.70;;
20711;SDS011;10517;50.742;4.224;2023-04-30T02:28:31;19.03;;;9.50;;
20711;SDS011;10517;50.742;4.224;2023-04-30T02:30:56;21.17;;;9.53;;
20711;SDS011;10517;50.742;4.224;2023-04-30T02:33:22;19.87;;;10.60;;
20711;SDS011;10517;50.742;4.224;2023-04-30T02:35:48;20.93;;;10.33;;
20711;SDS011;10517;50.742;4.224;2023-04-30T02:38:13;18.10;;;9.50;;
20711;SDS011;10517;50.742;4.224;2023-04-30T02:40:39;16.70;;;10.07;;
20711;SDS011;10517;50.742;4.224;2023-04-30T02:43:06;17.67;;;9.13;;
20711;SDS011;10517;50.742;4.224;2023-04-30T02:45:32;20.30;;;10.03;;
20711;SDS011;10517;50.742;4.224;2023-04-30T02:47:58;17.23;;;8.93;;
20711;SDS011;10517;50.742;4.224;2023-04-30T02:50:23;18.00;;;9.27;;
20711;SDS011;10517;50.742;4.224;2023-04-30T02:52:49;23.40;;;10.17;;
20711;SDS011;10517;50.742;4.224;2023-04-30T02:55:14;21.03;;;8.97;;
20711;SDS011;10517;50.742;4.224;2023-04-30T02:57:40;20.73;;;10.07;;
20711;SDS011;10517;50.742;4.224;2023-04-30T03:00:06;18.33;;;9.27;;
20711;SDS011;10517;50.742;4.224;2023-04-30T03:02:32;18.83;;;9.20;;
20711;SDS011;10517;50.742;4.224;2023-04-30T03:04:58;20.20;;;10.27;;
20711;SDS011;10517;50.742;4.224;2023-04-30T03:07:23;17.43;;;9.23;;
20711;SDS011;10517;50.742;4.224;2023-04-30T03:09:49;18.90;;;9.83;;
20711;SDS011;10517;50.742;4.224;2023-04-30T03:12:15;21.20;;;10.33;;
20711;SDS011;10517;50.742;4.224;2023-04-30T03:14:40;24.13;;;10.73;;
20711;SDS011;10517;50.742;4.224;2023-04-30T03:17:06;19.67;;;10.30;;
20711;SDS011;10517;50.742;4.224;2023-04-30T03:19:32;19.10;;;9.93;;
20711;SDS011;10517;50.742;4.224;2023-04-30T03:21:57;19.07;;;9.30;;
20711;SDS011;10517;50.742;4.224;2023-04-30T03:24:23;20.80;;;9.53;;
20711;SDS011;10517;50.742;4.224;2023-04-30T03:26:49;15.27;;;9.27;;
20711;SDS011;10517;50.742;4.224;2023-04-30T03:29:15;19.80;;;8.20;;
20711;SDS011;10517;50.742;4.224;2023-04-30T03:31:41;18.17;;;8.33;;
20711;SDS011;10517;50.742;4.224;2023-04-30T03:34:06;16.50;;;8.77;;
20711;SDS011;10517;50.742;4.224;2023-04-30T03:36:32;16.83;;;8.47;;
20711;SDS011;10517;50.742;4.224;2023-04-30T03:38:58;22.17;;;8.00;;
20711;SDS011;10517;50.742;4.224;2023-04-30T03:41:25;16.83;;;7.97;;
20711;SDS011;10517;50.742;4.224;2023-04-30T03:43:50;18.73;;;7.80;;
20711;SDS011;10517;50.742;4.224;2023-04-30T03:46:16;18.07;;;8.20;;
20711;SDS011;10517;50.742;4.224;2023-04-30T03:48:42;16.23;;;8.27;;
20711;SDS011;10517;50.742;4.224;2023-04-30T03:51:07;18.03;;;8.53;;
20711;SDS011;10517;50.742;4.224;2023-04-30T03:53:33;21.10;;;8.17;;
20711;SDS011;10517;50.742;4.224;2023-04-30T03:55:59;18.57;;;8.40;;
20711;SDS011;10517;50.742;4.224;2023-04-30T03:58:25;14.37;;;6.57;;
20711;SDS011;10517;50.742;4.224;2023-04-30T04:00:50;16.13;;;7.83;;
20711;SDS011;10517;50.742;4.224;2023-04-30T04:03:16;14.20;;;6.97;;
20711;SDS011;10517;50.742;4.224;2023-04-30T04:05:42;14.43;;;8.00;;
20711;SDS011;10517;50.742;4.224;2023-04-30T04:08:08;13.20;;;7.30;;
20711;SDS011;10517;50.742;4.224;2023-04-30T04:10:34;13.70;;;7.07;;
20711;SDS011;10517;50.742;4.224;2023-04-30T04:13:00;15.73;;;6.57;;
20711;SDS011;10517;50.742;4.224;2023-04-30T04:15:25;12.43;;;6.87;;
20711;SDS011;10517;50.742;4.224;2023-04-30T04:17:51;15.10;;;6.50;;
20711;SDS011;10517;50.742;4.224;2023-04-30T04:20:17;13.00;;;6.73;;
20711;SDS011;10517;50.742;4.224;2023-04-30T04:22:43;11.60;;;6.13;;
20711;SDS011;10517;50.742;4.224;2023-04-30T04:25:08;11.50;;;7.03;;
20711;SDS011;10517;50.742;4.224;2023-04-30T04:27:34;15.60;;;7.83;;
20711;SDS011;10517;50.742;4.224;2023-04-30T04:30:01;13.40;;;7.57;;
20711;SDS011;10517;50.742;4.224;2023-04-30T04:32:27;15.27;;;7.43;;
20711;SDS011;10517;50.742;4.224;2023-04-30T04:34:54;12.87;;;7.00;;
20711;SDS011;10517;50.742;4.224;2023-04-30T04:37:21;16.60;;;7.10;;
20711;SDS011;10517;50.742;4.224;2023-04-30T04:39:47;16.97;;;7.23;;
20711;SDS011;10517;50.742;4.224;2023-04-30T04:42:14;15.20;;;7.27;;
20711;SDS011;10517;50.742;4.224;2023-04-30T04:44:41;14.00;;;7.37;;
20711;SDS011;10517;50.742;4.224;2023-04-30T04:47:07;14.20;;;6.73;;
20711;SDS011;10517;50.742;4.224;2023-04-30T04:49:34;12.70;;;6.77;;
20711;SDS011;10517;50.742;4.224;2023-04-30T04:52:00;11.40;;;6.37;;
20711;SDS011;10517;50.742;4.224;2023-04-30T04:54:26;13.07;;;7.00;;
20711;SDS011;10517;50.742;4.224;2023-04-30T04:56:52;12.13;;;6.63;;
20711;SDS011;10517;50.742;4.224;2023-04-30T04:59:17;13.33;;;6.80;;
20711;SDS011;10517;50.742;4.224;2023-04-30T05:01:43;13.50;;;6.77;;
20711;SDS011;10517;50.742;4.224;2023-04-30T05:04:09;11.50;;;6.43;;
20711;SDS011;10517;50.742;4.224;2023-04-30T05:06:35;18.00;;;7.77;;
20711;SDS011;10517;50.742;4.224;2023-04-30T05:09:00;15.83;;;7.97;;
20711;SDS011;10517;50.742;4.224;2023-04-30T05:11:27;17.90;;;8.43;;
20711;SDS011;10517;50.742;4.224;2023-04-30T05:13:52;14.87;;;7.63;;
20711;SDS011;10517;50.742;4.224;2023-04-30T05:16:18;17.70;;;8.00;;
20711;SDS011;10517;50.742;4.224;2023-04-30T05:18:43;17.50;;;8.20;;
20711;SDS011;10517;50.742;4.224;2023-04-30T05:21:09;14.33;;;7.33;;
20711;SDS011;10517;50.742;4.224;2023-04-30T05:23:35;13.43;;;6.97;;
20711;SDS011;10517;50.742;4.224;2023-04-30T05:26:00;12.33;;;6.83;;
20711;SDS011;10517;50.742;4.224;2023-04-30T05:28:27;14.53;;;7.70;;
20711;SDS011;10517;50.742;4.224;2023-04-30T05:30:52;11.90;;;7.50;;
20711;SDS011;10517;50.742;4.224;2023-04-30T05:33:18;17.40;;;7.30;;
20711;SDS011;10517;50.742;4.224;2023-04-30T05:35:44;20.00;;;7.87;;
20711;SDS011;10517;50.742;4.224;2023-04-30T05:38:09;17.27;;;7.23;;
20711;SDS011;10517;50.742;4.224;2023-04-30T05:40:35;17.43;;;8.53;;
20711;SDS011;10517;50.742;4.224;2023-04-30T05:43:01;15.90;;;7.63;;
20711;SDS011;10517;50.742;4.224;2023-04-30T05:45:26;13.83;;;7.27;;
20711;SDS011;10517;50.742;4.224;2023-04-30T05:47:52;18.80;;;7.23;;
20711;SDS011;10517;50.742;4.224;2023-04-30T05:50:17;18.83;;;7.50;;
20711;SDS011;10517;50.742;4.224;2023-04-30T05:52:43;15.70;;;7.17;;
20711;SDS011;10517;50.742;4.224;2023-04-30T05:55:09;13.70;;;7.43;;
20711;SDS011;10517;50.742;4.224;2023-04-30T05:57:35;15.10;;;6.30;;
20711;SDS011;10517;50.742;4.224;2023-04-30T06:00:01;14.57;;;7.83;;
20711;SDS011;10517;50.742;4.224;2023-04-30T06:02:27;14.40;;;7.57;;
20711;SDS011;10517;50.742;4.224;2023-04-30T06:04:52;13.20;;;6.80;;
20711;SDS011;10517;50.742;4.224;2023-04-30T06:07:18;19.00;;;7.47;;
20711;SDS011;10517;50.742;4.224;2023-04-30T06:09:44;17.53;;;8.37;;
20711;SDS011;10517;50.742;4.224;2023-04-30T06:12:10;17.70;;;8.43;;
20711;SDS011;10517;50.742;4.224;2023-04-30T06:14:35;14.23;;;7.97;;
20711;SDS011;10517;50.742;4.224;2023-04-30T06:17:01;14.07;;;8.13;;
20711;SDS011;10517;50.742;4.224;2023-04-30T06:19:27;20.90;;;7.57;;
20711;SDS011;10517;50.742;4.224;2023-04-30T06:21:52;20.00;;;8.37;;
20711;SDS011;10517;50.742;4.224;2023-04-30T06:24:19;16.80;;;8.47;;
20711;SDS011;10517;50.742;4.224;2023-04-30T06:26:45;16.00;;;7.97;;
20711;SDS011;10517;50.742;4.224;2023-04-30T06:29:10;18.37;;;8.37;;
20711;SDS011;10517;50.742;4.224;2023-04-30T06:31:36;14.20;;;8.53;;
20711;SDS011;10517;50.742;4.224;2023-04-30T06:34:02;15.53;;;8.17;;
20711;SDS011;10517;50.742;4.224;2023-04-30T06:36:27;20.77;;;9.30;;
20711;SDS011;10517;50.742;4.224;2023-04-30T06:38:53;18.63;;;8.93;;
20711;SDS011;10517;50.742;4.224;2023-04-30T06:41:18;14.77;;;8.00;;
20711;SDS011;10517;50.742;4.224;2023-04-30T06:43:44;13.57;;;7.87;;
20711;SDS011;10517;50.742;4.224;2023-04-30T06:46:10;17.97;;;9.23;;
20711;SDS011;10517;50.742;4.224;2023-04-30T06:48:36;13.60;;;7.83;;
20711;SDS011;10517;50.742;4.224;2023-04-30T06:51:01;15.70;;;8.57;;
20711;SDS011;10517;50.742;4.224;2023-04-30T06:53:27;21.67;;;9.30;;
20711;SDS011;10517;50.742;4.224;2023-04-30T06:55:53;17.30;;;8.97;;
20711;SDS011;10517;50.742;4.224;2023-04-30T06:58:19;18.97;;;9.40;;
20711;SDS011;10517;50.742;4.224;2023-04-30T07:00:44;19.37;;;9.83;;
20711;SDS011;10517;50.742;4.224;2023-04-30T07:03:10;19.33;;;8.00;;
20711;SDS011;10517;50.742;4.224;2023-04-30T07:05:36;17.83;;;10.10;;
20711;SDS011;10517;50.742;4.224;2023-04-30T07:08:02;16.30;;;9.57;;
20711;SDS011;10517;50.742;4.224;2023-04-30T07:10:28;19.63;;;9.13;;
20711;SDS011;10517;50.742;4.224;2023-04-30T07:12:55;18.87;;;9.40;;
20711;SDS011;10517;50.742;4.224;2023-04-30T07:15:21;19.05;;;9.82;;
20711;SDS011;10517;50.742;4.224;2023-04-30T07:17:47;17.85;;;9.48;;
20711;SDS011;10517;50.742;4.224;2023-04-30T07:20:12;19.10;;;9.40;;
20711;SDS011;10517;50.742;4.224;2023-04-30T07:22:38;17.60;;;9.90;;
20711;SDS011;10517;50.742;4.224;2023-04-30T07:25:05;16.25;;;8.50;;
20711;SDS011;10517;50.742;4.224;2023-04-30T07:27:31;18.88;;;9.40;;
20711;SDS011;10517;50.742;4.224;2023-04-30T07:29:56;20.55;;;10.02;;
20711;SDS011;10517;50.742;4.224;2023-04-30T07:32:22;17.85;;;8.93;;
20711;SDS011;10517;50.742;4.224;2023-04-30T07:34:50;18.40;;;8.15;;
20711;SDS011;10517;50.742;4.224;2023-04-30T07:37:17;18.88;;;9.70;;
20711;SDS011;10517;50.742;4.224;2023-04-30T07:39:43;23.55;;;10.73;;
20711;SDS011;10517;50.742;4.224;2023-04-30T07:42:08;20.90;;;9.88;;
20711;SDS011;10517;50.742;4.224;2023-04-30T07:44:34;20.08;;;9.98;;
20711;SDS011;10517;50.742;4.224;2023-04-30T07:46:59;22.88;;;11.00;;
20711;SDS011;10517;50.742;4.224;2023-04-30T07:49:25;16.65;;;9.20;;
20711;SDS011;10517;50.742;4.224;2023-04-30T07:51:51;17.73;;;10.70;;
20711;SDS011;10517;50.742;4.224;2023-04-30T07:54:16;17.38;;;10.48;;
20711;SDS011;10517;50.742;4.224;2023-04-30T07:56:42;21.05;;;9.60;;
20711;SDS011;10517;50.742;4.224;2023-04-30T07:59:07;20.40;;;10.68;;
20711;SDS011;10517;50.742;4.224;2023-04-30T08:01:33;18.92;;;10.27;;
20711;SDS011;10517;50.742;4.224;2023-04-30T08:03:59;17.98;;;10.43;;
20711;SDS011;10517;50.742;4.224;2023-04-30T08:06:25;18.58;;;10.60;;
20711;SDS011;10517;50.742;4.224;2023-04-30T08:08:53;19.00;;;10.30;;
20711;SDS011;10517;50.742;4.224;2023-04-30T08:11:19;18.13;;;10.90;;
20711;SDS011;10517;50.742;4.224;2023-04-30T08:13:45;17.70;;;10.98;;
20711;SDS011;10517;50.742;4.224;2023-04-30T08:16:11;15.27;;;10.02;;
20711;SDS011;10517;50.742;4.224;2023-04-30T08:18:36;17.92;;;9.35;;
20711;SDS011;10517;50.742;4.224;2023-04-30T08:21:08;14.10;;;8.50;;
20711;SDS011;10517;50.742;4.224;2023-04-30T08:23:37;17.92;;;8.95;;
20711;SDS011;10517;50.742;4.224;2023-04-30T08:26:03;12.75;;;7.57;;
20711;SDS011;10517;50.742;4.224;2023-04-30T08:28:29;14.98;;;8.10;;
20711;SDS011;10517;50.742;4.224;2023-04-30T08:30:55;16.42;;;8.43;;
20711;SDS011;10517;50.742;4.224;2023-04-30T08:33:20;14.43;;;7.82;;
20711;SDS011;10517;50.742;4.224;2023-04-30T08:35:46;13.57;;;8.73;;
20711;SDS011;10517;50.742;4.224;2023-04-30T08:38:12;12.85;;;6.68;;
20711;SDS011;10517;50.742;4.224;2023-04-30T08:40:37;13.85;;;7.07;;
20711;SDS011;10517;50.742;4.224;2023-04-30T08:43:05;13.65;;;7.13;;
20711;SDS011;10517;50.742;4.224;2023-04-30T08:45:33;10.80;;;6.97;;
20711;SDS011;10517;50.742;4.224;2023-04-30T08:48:01;10.90;;;7.10;;
20711;SDS011;10517;50.742;4.224;2023-04-30T08:50:28;12.88;;;6.28;;
20711;SDS011;10517;50.742;4.224;2023-04-30T08:52:56;8.65;;;5.53;;
20711;SDS011;10517;50.742;4.224;2023-04-30T08:55:24;11.07;;;5.95;;
20711;SDS011;10517;50.742;4.224;2023-04-30T08:57:52;12.00;;;6.18;;
20711;SDS011;10517;50.742;4.224;2023-04-30T09:00:18;8.98;;;5.00;;
20711;SDS011;10517;50.742;4.224;2023-04-30T09:02:44;11.55;;;4.78;;
20711;SDS011;10517;50.742;4.224;2023-04-30T09:05:12;9.48;;;5.22;;
20711;SDS011;10517;50.742;4.224;2023-04-30T09:07:39;7.25;;;5.10;;
20711;SDS011;10517;50.742;4.224;2023-04-30T09:10:13;8.02;;;4.57;;
20711;SDS011;10517;50.742;4.224;2023-04-30T09:12:43;5.90;;;4.43;;
20711;SDS011;10517;50.742;4.224;2023-04-30T09:15:22;6.65;;;4.30;;
20711;SDS011;10517;50.742;4.224;2023-04-30T09:17:47;6.70;;;3.70;;
20711;SDS011;10517;50.742;4.224;2023-04-30T09:20:13;7.53;;;3.75;;
20711;SDS011;10517;50.742;4.224;2023-04-30T09:22:39;7.55;;;3.80;;
20711;SDS011;10517;50.742;4.224;2023-04-30T09:25:06;6.97;;;4.07;;
20711;SDS011;10517;50.742;4.224;2023-04-30T09:27:33;6.15;;;4.07;;
20711;SDS011;10517;50.742;4.224;2023-04-30T09:29:59;4.35;;;3.38;;
20711;SDS011;10517;50.742;4.224;2023-04-30T09:32:24;8.68;;;4.25;;
20711;SDS011;10517;50.742;4.224;2023-04-30T09:34:50;6.88;;;3.53;;
20711;SDS011;10517;50.742;4.224;2023-04-30T09:37:16;10.27;;;4.47;;
20711;SDS011;10517;50.742;4.224;2023-04-30T09:39:52;5.72;;;3.88;;
20711;SDS011;10517;50.742;4.224;2023-04-30T09:42:19;6.88;;;3.70;;
20711;SDS011;10517;50.742;4.224;2023-04-30T09:44:45;6.85;;;3.88;;
20711;SDS011;10517;50.742;4.224;2023-04-30T09:49:43;6.65;;;3.10;;
20711;SDS011;10517;50.742;4.224;2023-04-30T09:52:15;6.38;;;3.78;;
20711;SDS011;10517;50.742;4.224;2023-04-30T09:54:42;6.57;;;4.00;;
20711;SDS011;10517;50.742;4.224;2023-04-30T09:57:10;11.05;;;3.55;;
20711;SDS011;10517;50.742;4.224;2023-04-30T09:59:37;5.93;;;3.35;;
20711;SDS011;10517;50.742;4.224;2023-04-30T10:02:07;5.22;;;3.30;;
20711;SDS011;10517;50.742;4.224;2023-04-30T10:04:34;4.97;;;2.95;;
20711;SDS011;10517;50.742;4.224;2023-04-30T10:07:03;5.82;;;4.07;;
20711;SDS011;10517;50.742;4.224;2023-04-30T10:09:56;4.72;;;3.47;;
20711;SDS011;10517;50.742;4.224;2023-04-30T10:12:33;6.38;;;3.97;;
20711;SDS011;10517;50.742;4.224;2023-04-30T10:15:15;8.43;;;4.28;;
20711;SDS011;10517;50.742;4.224;2023-04-30T10:17:46;6.05;;;4.15;;
20711;SDS011;10517;50.742;4.224;2023-04-30T10:20:18;5.82;;;3.83;;
20711;SDS011;10517;50.742;4.224;2023-04-30T10:22:47;8.52;;;5.03;;
20711;SDS011;10517;50.742;4.224;2023-04-30T10:25:12;4.43;;;3.47;;
20711;SDS011;10517;50.742;4.224;2023-04-30T10:27:38;5.18;;;3.35;;
20711;SDS011;10517;50.742;4.224;2023-04-30T10:30:05;5.00;;;3.08;;
20711;SDS011;10517;50.742;4.224;2023-04-30T10:32:37;3.45;;;2.50;;
20711;SDS011;10517;50.742;4.224;2023-04-30T10:35:13;6.72;;;3.60;;
20711;SDS011;10517;50.742;4.224;2023-04-30T10:37:46;3.33;;;2.28;;
20711;SDS011;10517;50.742;4.224;2023-04-30T10:40:25;3.08;;;2.60;;
20711;SDS011;10517;50.742;4.224;2023-04-30T10:42:52;5.25;;;3.13;;
20711;SDS011;10517;50.742;4.224;2023-04-30T10:45:22;4.65;;;3.22;;
20711;SDS011;10517;50.742;4.224;2023-04-30T10:48:01;4.68;;;2.83;;
20711;SDS011;10517;50.742;4.224;2023-04-30T10:50:28;5.47;;;3.65;;
20711;SDS011;10517;50.742;4.224;2023-04-30T10:53:01;2.38;;;2.17;;
20711;SDS011;10517;50.742;4.224;2023-04-30T10:55:28;4.22;;;2.15;;
20711;SDS011;10517;50.742;4.224;2023-04-30T10:57:54;3.03;;;2.05;;
20711;SDS011;10517;50.742;4.224;2023-04-30T11:00:25;3.60;;;2.58;;
20711;SDS011;10517;50.742;4.224;2023-04-30T11:02:56;2.30;;;1.92;;
20711;SDS011;10517;50.742;4.224;2023-04-30T11:05:36;2.83;;;2.00;;
20711;SDS011;10517;50.742;4.224;2023-04-30T11:08:03;3.60;;;1.67;;
20711;SDS011;10517;50.742;4.224;2023-04-30T11:10:33;7.55;;;4.07;;
20711;SDS011;10517;50.742;4.224;2023-04-30T11:13:02;3.67;;;2.53;;
20711;SDS011;10517;50.742;4.224;2023-04-30T11:15:34;3.00;;;2.70;;
20711;SDS011;10517;50.742;4.224;2023-04-30T11:18:06;2.83;;;2.08;;
20711;SDS011;10517;50.742;4.224;2023-04-30T11:20:32;2.50;;;1.90;;
20711;SDS011;10517;50.742;4.224;2023-04-30T11:25:42;4.32;;;2.22;;
20711;SDS011;10517;50.742;4.224;2023-04-30T11:28:12;3.72;;;2.53;;
20711;SDS011;10517;50.742;4.224;2023-04-30T11:30:39;4.10;;;2.67;;
20711;SDS011;10517;50.742;4.224;2023-04-30T11:33:05;6.40;;;1.73;;
20711;SDS011;10517;50.742;4.224;2023-04-30T11:35:32;4.00;;;2.92;;
20711;SDS011;10517;50.742;4.224;2023-04-30T11:37:58;4.72;;;2.20;;
20711;SDS011;10517;50.742;4.224;2023-04-30T11:40:24;4.28;;;2.33;;
20711;SDS011;10517;50.742;4.224;2023-04-30T11:42:51;4.10;;;2.90;;
20711;SDS011;10517;50.742;4.224;2023-04-30T11:45:16;3.75;;;2.67;;
20711;SDS011;10517;50.742;4.224;2023-04-30T11:50:18;2.95;;;2.50;;
20711;SDS011;10517;50.742;4.224;2023-04-30T11:52:54;4.85;;;3.00;;
20711;SDS011;10517;50.742;4.224;2023-04-30T11:55:22;6.50;;;3.20;;
20711;SDS011;10517;50.742;4.224;2023-04-30T11:57:50;5.25;;;3.42;;
20711;SDS011;10517;50.742;4.224;2023-04-30T12:00:20;5.88;;;2.78;;
20711;SDS011;10517;50.742;4.224;2023-04-30T12:02:50;3.42;;;2.90;;
20711;SDS011;10517;50.742;4.224;2023-04-30T12:05:17;4.60;;;3.22;;
20711;SDS011;10517;50.742;4.224;2023-04-30T12:07:48;3.28;;;2.47;;
20711;SDS011;10517;50.742;4.224;2023-04-30T12:10:17;4.05;;;2.53;;
20711;SDS011;10517;50.742;4.224;2023-04-30T12:12:43;6.65;;;3.55;;
20711;SDS011;10517;50.742;4.224;2023-04-30T12:15:13;4.30;;;3.25;;
20711;SDS011;10517;50.742;4.224;2023-04-30T12:17:51;6.28;;;3.20;;
20711;SDS011;10517;50.742;4.224;2023-04-30T12:20:18;3.63;;;2.53;;
20711;SDS011;10517;50.742;4.224;2023-04-30T12:22:45;6.15;;;2.67;;
20711;SDS011;10517;50.742;4.224;2023-04-30T12:25:15;5.28;;;2.78;;
20711;SDS011;10517;50.742;4.224;2023-04-30T12:27:46;5.40;;;2.72;;
20711;SDS011;10517;50.742;4.224;2023-04-30T12:30:13;4.85;;;2.28;;
20711;SDS011;10517;50.742;4.224;2023-04-30T12:32:43;3.10;;;2.15;;
20711;SDS011;10517;50.742;4.224;2023-04-30T12:35:16;3.80;;;1.88;;
20711;SDS011;10517;50.742;4.224;2023-04-30T12:37:47;2.53;;;1.80;;
20711;SDS011;10517;50.742;4.224;2023-04-30T12:40:18;3.42;;;3.13;;
20711;SDS011;10517;50.742;4.224;2023-04-30T12:42:45;4.05;;;2.92;;
20711;SDS011;10517;50.742;4.224;2023-04-30T12:48:21;2.50;;;2.30;;
20711;SDS011;10517;50.742;4.224;2023-04-30T12:53:22;6.43;;;5.82;;
20711;SDS011;10517;50.742;4.224;2023-04-30T12:58:37;2.15;;;1.85;;
20711;SDS011;10517;50.742;4.224;2023-04-30T13:01:04;2.92;;;2.67;;
20711;SDS011;10517;50.742;4.224;2023-04-30T13:03:30;5.72;;;2.80;;
20711;SDS011;10517;50.742;4.224;2023-04-30T13:05:55;2.80;;;2.40;;
20711;SDS011;10517;50.742;4.224;2023-04-30T13:08:22;2.47;;;2.20;;
20711;SDS011;10517;50.742;4.224;2023-04-30T13:10:48;4.30;;;2.00;;
20711;SDS011;10517;50.742;4.224;2023-04-30T13:13:15;2.00;;;1.80;;
20711;SDS011;10517;50.742;4.224;2023-04-30T13:15:42;2.70;;;2.42;;
20711;SDS011;10517;50.742;4.224;2023-04-30T13:18:08;3.67;;;2.42;;
20711;SDS011;10517;50.742;4.224;2023-04-30T13:20:37;3.00;;;1.92;;
20711;SDS011;10517;50.742;4.224;2023-04-30T13:23:04;3.70;;;2.10;;
20711;SDS011;10517;50.742;4.224;2023-04-30T13:25:30;2.90;;;2.10;;
20711;SDS011;10517;50.742;4.224;2023-04-30T13:27:57;2.95;;;2.60;;
20711;SDS011;10517;50.742;4.224;2023-04-30T13:30:23;2.28;;;2.03;;
20711;SDS011;10517;50.742;4.224;2023-04-30T13:32:49;3.33;;;2.67;;
20711;SDS011;10517;50.742;4.224;2023-04-30T13:35:15;2.70;;;2.38;;
20711;SDS011;10517;50.742;4.224;2023-04-30T13:37:41;4.32;;;2.38;;
20711;SDS011;10517;50.742;4.224;2023-04-30T13:40:07;4.60;;;2.63;;
20711;SDS011;10517;50.742;4.224;2023-04-30T13:42:35;1.90;;;1.80;;
20711;SDS011;10517;50.742;4.224;2023-04-30T13:45:02;2.33;;;2.13;;
20711;SDS011;10517;50.742;4.224;2023-04-30T13:47:29;3.78;;;2.47;;
20711;SDS011;10517;50.742;4.224;2023-04-30T13:49:55;2.40;;;2.20;;
20711;SDS011;10517;50.742;4.224;2023-04-30T13:52:20;3.17;;;2.35;;
20711;SDS011;10517;50.742;4.224;2023-04-30T13:54:46;4.10;;;2.20;;
20711;SDS011;10517;50.742;4.224;2023-04-30T13:57:12;2.10;;;2.00;;
20711;SDS011;10517;50.742;4.224;2023-04-30T13:59:37;3.38;;;1.85;;
20711;SDS011;10517;50.742;4.224;2023-04-30T14:02:03;2.00;;;1.85;;
20711;SDS011;10517;50.742;4.224;2023-04-30T14:04:28;5.30;;;3.95;;
20711;SDS011;10517;50.742;4.224;2023-04-30T14:06:55;2.40;;;2.20;;
20711;SDS011;10517;50.742;4.224;2023-04-30T14:09:21;3.30;;;2.55;;
20711;SDS011;10517;50.742;4.224;2023-04-30T14:11:47;2.83;;;2.35;;
20711;SDS011;10517;50.742;4.224;2023-04-30T14:14:13;3.05;;;2.40;;
20711;SDS011;10517;50.742;4.224;2023-04-30T14:16:39;2.83;;;2.60;;
20711;SDS011;10517;50.742;4.224;2023-04-30T14:19:04;2.58;;;2.00;;
20711;SDS011;10517;50.742;4.224;2023-04-30T14:21:30;2.42;;;2.22;;
20711;SDS011;10517;50.742;4.224;2023-04-30T14:23:57;2.65;;;2.20;;
20711;SDS011;10517;50.742;4.224;2023-04-30T14:26:23;2.40;;;2.20;;
20711;SDS011;10517;50.742;4.224;2023-04-30T14:28:48;4.05;;;2.13;;
20711;SDS011;10517;50.742;4.224;2023-04-30T14:31:14;2.53;;;2.28;;
20711;SDS011;10517;50.742;4.224;2023-04-30T14:33:40;2.17;;;2.08;;
20711;SDS011;10517;50.742;4.224;2023-04-30T14:36:06;2.47;;;2.28;;
20711;SDS011;10517;50.742;4.224;2023-04-30T14:38:32;2.75;;;2.55;;
20711;SDS011;10517;50.742;4.224;2023-04-30T14:40:57;2.15;;;2.00;;
20711;SDS011;10517;50.742;4.224;2023-04-30T14:43:23;2.22;;;2.03;;
20711;SDS011;10517;50.742;4.224;2023-04-30T14:45:49;3.78;;;2.30;;
20711;SDS011;10517;50.742;4.224;2023-04-30T14:48:15;2.33;;;2.13;;
20711;SDS011;10517;50.742;4.224;2023-04-30T14:50:42;4.45;;;2.72;;
20711;SDS011;10517;50.742;4.224;2023-04-30T14:53:08;2.72;;;2.53;;
20711;SDS011;10517;50.742;4.224;2023-04-30T14:55:35;2.30;;;2.10;;
20711;SDS011;10517;50.742;4.224;2023-04-30T14:58:01;2.22;;;2.03;;
20711;SDS011;10517;50.742;4.224;2023-04-30T15:00:27;2.50;;;2.30;;
20711;SDS011;10517;50.742;4.224;2023-04-30T15:02:53;5.35;;;2.50;;
20711;SDS011;10517;50.742;4.224;2023-04-30T15:05:19;2.00;;;1.90;;
20711;SDS011;10517;50.742;4.224;2023-04-30T15:07:45;3.63;;;2.15;;
20711;SDS011;10517;50.742;4.224;2023-04-30T15:10:10;2.50;;;2.30;;
20711;SDS011;10517;50.742;4.224;2023-04-30T15:12:36;2.95;;;2.40;;
20711;SDS011;10517;50.742;4.224;2023-04-30T15:15:03;2.45;;;2.08;;
20711;SDS011;10517;50.742;4.224;2023-04-30T15:17:29;2.92;;;2.67;;